Time;durP1;ratioP1;P1;durP2;ratioP2;P2;SDS_P1;SDS_P2;PMS_P1;PMS_P2;Temp;Humidity;BMP_temperature;BMP_pressure;BME280_temperature;BME280_humidity;BME280_pressure;Samples;Min_cycle;Max_cycle;Signal;HPM_P1;HPM_P2
2022/05/31 00:00:26;;;;;;;;;;;;;;;12.65;62.18;100590.44;4916689;29;2167;-94
2022/05/31 00:02:53;;;;;;;;;;;;;;;12.65;62.09;100595.84;4925953;29;2285;-94
2022/05/31 00:05:19;;;;;;;;;;;;;;;12.64;62.13;100592.31;4920584;29;2095;-94
2022/05/31 00:07:45;;;;;;;;;;;;;;;12.63;62.10;100587.97;4914594;29;1639;-94
2022/05/31 00:10:12;;;;;;;;;;;;;;;12.63;62.04;100590.66;4921256;29;1179;-94
2022/05/31 00:12:38;;;;;;;;;;;;;;;12.62;62.03;100590.91;4921643;29;1307;-94
2022/05/31 00:15:05;;;;;;;;;;;;;;;12.60;62.01;100588.44;4921512;29;1302;-94
2022/05/31 00:17:31;;;;;;;;;;;;;;;12.61;61.93;100591.94;4916303;29;1986;-94
2022/05/31 00:19:58;;;;;;;;;;;;;;;12.60;62.03;100585.72;4927446;29;1083;-95
2022/05/31 00:22:25;;;;;;;;;;;;;;;12.59;62.09;100591.34;4921257;29;1334;-94
2022/05/31 00:24:51;;;;;;;;;;;;;;;12.58;61.85;100601.34;4921278;29;1271;-95
2022/05/31 00:27:18;;;;;;;;;;;;;;;12.58;61.94;100600.53;4920834;29;1423;-94
2022/05/31 00:29:45;;;;;;;;;;;;;;;12.57;61.94;100594.28;4913332;29;1400;-94
2022/05/31 00:32:12;;;;;;;;;;;;;;;12.57;61.85;100588.06;4910395;29;2212;-94
2022/05/31 00:34:38;;;;;;;;;;;;;;;12.57;61.94;100601.59;4921202;29;1226;-94
2022/05/31 00:37:05;;;;;;;;;;;;;;;12.56;62.13;100584.56;4921804;29;1914;-94
2022/05/31 00:39:31;;;;;;;;;;;;;;;12.54;61.98;100588.53;4917745;29;2022;-94
2022/05/31 00:41:57;;;;;;;;;;;;;;;12.54;61.85;100585.84;4907733;29;1186;-95
2022/05/31 00:44:27;;;;;;;;;;;;;;;12.54;62.05;100588.53;4920641;29;1289;-94
2022/05/31 00:46:53;;;;;;;;;;;;;;;12.52;61.96;100587.94;4920065;29;2187;-94
2022/05/31 00:49:19;;;;;;;;;;;;;;;12.52;61.98;100591.47;4921067;29;1307;-95
2022/05/31 00:51:46;;;;;;;;;;;;;;;12.51;62.07;100595.22;4921020;29;1259;-95
2022/05/31 00:54:12;;;;;;;;;;;;;;;12.51;62.02;100595.22;4921086;29;1332;-95
2022/05/31 00:56:39;;;;;;;;;;;;;;;12.50;61.92;100589.00;4920754;29;1960;-95
2022/05/31 00:59:05;;;;;;;;;;;;;;;12.49;61.84;100590.03;4921076;29;1293;-95
2022/05/31 01:01:31;;;;;;;;;;;;;;;12.49;62.10;100583.81;4934949;29;2279;-95
2022/05/31 01:03:58;;;;;;;;;;;;;;;12.50;61.86;100593.59;4920454;29;2240;-94
2022/05/31 01:06:24;;;;;;;;;;;;;;;12.48;61.74;100584.88;4932064;29;2288;-95
2022/05/31 01:08:51;;;;;;;;;;;;;;;12.46;62.00;100585.09;4949717;29;1409;-94
2022/05/31 01:11:17;;;;;;;;;;;;;;;12.47;61.92;100581.38;4920769;29;1170;-95
2022/05/31 01:13:44;;;;;;;;;;;;;;;12.47;61.89;100581.38;4948288;29;2272;-95
2022/05/31 01:16:10;;;;;;;;;;;;;;;12.45;61.90;100580.75;4920523;29;1907;-95
2022/05/31 01:18:37;;;;;;;;;;;;;;;12.45;61.71;100579.94;4920470;29;1345;-95
2022/05/31 01:21:04;;;;;;;;;;;;;;;12.44;61.76;100581.81;4920516;29;1239;-94
2022/05/31 01:23:30;;;;;;;;;;;;;;;12.44;61.74;100580.97;4921271;29;1217;-95
2022/05/31 01:25:56;;;;;;;;;;;;;;;12.43;61.80;100584.75;4919857;29;2310;-95
2022/05/31 01:28:23;;;;;;;;;;;;;;;12.43;61.77;100577.47;4920473;29;1868;-95
2022/05/31 01:30:49;;;;;;;;;;;;;;;12.42;61.82;100573.13;4918931;29;2079;-95
2022/05/31 01:33:16;;;;;;;;;;;;;;;12.41;61.69;100579.59;4919587;29;2151;-95
2022/05/31 01:35:42;;;;;;;;;;;;;;;12.42;61.93;100575.00;4914888;29;1619;-95
2022/05/31 01:38:09;;;;;;;;;;;;;;;12.41;61.68;100574.19;4926757;29;1903;-95
2022/05/31 01:40:35;;;;;;;;;;;;;;;12.40;61.78;100571.69;4944742;29;2140;-94
2022/05/31 01:43:01;;;;;;;;;;;;;;;12.40;61.79;100577.09;4918549;29;2352;-95
2022/05/31 01:45:29;;;;;;;;;;;;;;;12.39;61.92;100575.47;4937039;29;1493;-95
2022/05/31 01:47:56;;;;;;;;;;;;;;;12.38;61.71;100568.41;4920126;29;1426;-94
2022/05/31 01:50:23;;;;;;;;;;;;;;;12.39;61.89;100573.59;4913945;29;1188;-95
2022/05/31 01:52:49;;;;;;;;;;;;;;;12.37;61.81;100574.88;4936228;29;1193;-95
2022/05/31 01:55:15;;;;;;;;;;;;;;;12.38;61.55;100581.91;4950671;29;1572;-95
2022/05/31 01:57:42;;;;;;;;;;;;;;;12.38;61.74;100576.50;4942599;29;2178;-95
2022/05/31 02:00:08;;;;;;;;;;;;;;;12.37;61.82;100574.88;4934376;29;2119;-95
2022/05/31 02:02:35;;;;;;;;;;;;;;;12.35;61.59;100569.69;4923502;29;1290;-95
2022/05/31 02:05:01;;;;;;;;;;;;;;;12.36;61.66;100574.06;4923546;29;1702;-95
2022/05/31 02:07:27;;;;;;;;;;;;;;;12.35;61.58;100575.09;4923454;29;3317;-95
2022/05/31 02:09:54;;;;;;;;;;;;;;;12.35;61.45;100582.38;4923623;29;1333;-95
2022/05/31 02:12:21;;;;;;;;;;;;;;;12.33;61.69;100577.22;4923993;29;1282;-95
2022/05/31 02:14:47;;;;;;;;;;;;;;;12.34;61.69;100580.72;4922473;29;1910;-95
2022/05/31 02:17:13;;;;;;;;;;;;;;;12.34;61.49;100594.25;4917395;29;1911;-95
2022/05/31 02:19:40;;;;;;;;;;;;;;;12.32;61.63;100582.84;4924765;29;1267;-95
2022/05/31 02:22:06;;;;;;;;;;;;;;;12.32;61.55;100580.94;4923560;29;1162;-95
2022/05/31 02:24:33;;;;;;;;;;;;;;;12.31;61.71;100589.28;4934493;29;1608;-95
2022/05/31 02:26:59;;;;;;;;;;;;;;;12.31;61.66;100584.72;4920656;29;2373;-95
2022/05/31 02:29:26;;;;;;;;;;;;;;;12.31;61.45;100594.69;4922707;29;2289;-95
2022/05/31 02:31:52;;;;;;;;;;;;;;;12.30;61.56;100582.25;4954138;29;1198;-95
2022/05/31 02:34:19;;;;;;;;;;;;;;;12.28;61.55;100575.19;4928761;29;1745;-95
2022/05/31 02:36:46;;;;;;;;;;;;;;;12.28;61.53;100577.06;4922506;29;2243;-95
2022/05/31 02:39:13;;;;;;;;;;;;;;;12.27;61.41;100573.56;4953881;29;1163;-95
2022/05/31 02:41:39;;;;;;;;;;;;;;;12.27;61.46;100572.75;4939856;29;1148;-95
2022/05/31 02:44:06;;;;;;;;;;;;;;;12.28;61.40;100571.66;4921578;29;2184;-95
2022/05/31 02:46:32;;;;;;;;;;;;;;;12.27;61.54;100565.47;4923282;29;1218;-95
2022/05/31 02:48:59;;;;;;;;;;;;;;;12.27;61.48;100576.25;4953264;29;1240;-95
2022/05/31 02:51:26;;;;;;;;;;;;;;;12.26;61.38;100571.91;4922194;29;2160;-94
2022/05/31 02:53:52;;;;;;;;;;;;;;;12.25;61.38;100577.53;4949863;29;1572;-95
2022/05/31 02:56:19;;;;;;;;;;;;;;;12.24;61.44;100579.41;4928731;29;2241;-95
2022/05/31 02:58:45;;;;;;;;;;;;;;;12.24;61.36;100578.59;4916729;29;2245;-95
2022/05/31 03:01:12;;;;;;;;;;;;;;;12.23;61.34;100577.75;4918210;29;1195;-95
2022/05/31 03:03:38;;;;;;;;;;;;;;;12.22;61.35;100580.69;4924849;29;2116;-95
2022/05/31 03:06:04;;;;;;;;;;;;;;;12.22;61.35;100576.13;4905834;29;1795;-95
2022/05/31 03:08:31;;;;;;;;;;;;;;;12.22;61.22;100581.50;4923380;29;1278;-94
2022/05/31 03:10:57;;;;;;;;;;;;;;;12.22;61.40;100586.91;4922140;29;2035;-95
2022/05/31 03:13:24;;;;;;;;;;;;;;;12.22;61.41;100586.09;4921143;29;2267;-95
2022/05/31 03:15:50;;;;;;;;;;;;;;;12.20;61.27;100578.22;4919932;29;1189;-95
2022/05/31 03:18:17;;;;;;;;;;;;;;;12.20;61.43;100578.22;4917572;29;1972;-96
2022/05/31 03:20:43;;;;;;;;;;;;;;;12.20;61.42;100577.41;4908082;29;1262;-95
2022/05/31 03:23:10;;;;;;;;;;;;;;;12.18;61.29;100580.34;4922299;29;1312;-95
2022/05/31 03:25:36;;;;;;;;;;;;;;;12.19;61.25;100581.16;4921849;29;2136;-95
2022/05/31 03:28:03;;;;;;;;;;;;;;;12.19;61.29;100587.38;4921478;29;2178;-95
2022/05/31 03:30:29;;;;;;;;;;;;;;;12.18;61.41;100584.91;4921514;29;2185;-95
2022/05/31 03:32:55;;;;;;;;;;;;;;;12.17;61.38;100578.66;4921586;29;1882;-94
2022/05/31 03:35:22;;;;;;;;;;;;;;;12.17;61.17;100577.84;4916739;29;1160;-95
2022/05/31 03:37:48;;;;;;;;;;;;;;;12.15;61.02;100575.41;4922395;29;1974;-95
2022/05/31 03:40:56;;;;;;;;;;;;;;;12.15;61.19;100580.81;4922243;29;1142;-95
2022/05/31 03:43:01;;;;;;;;;;;;;;;12.15;61.34;100577.28;4919991;29;2008;-95
2022/05/31 03:45:27;;;;;;;;;;;;;;;12.14;61.33;100572.91;4920667;29;2279;-94
2022/05/31 03:47:54;;;;;;;;;;;;;;;12.14;61.35;100579.13;4921372;29;2214;-95
2022/05/31 03:50:20;;;;;;;;;;;;;;;12.13;61.28;100576.69;4921874;29;1176;-95
2022/05/31 03:52:47;;;;;;;;;;;;;;;12.12;61.26;100573.16;4921783;29;1415;-95
2022/05/31 03:55:13;;;;;;;;;;;;;;;12.12;61.20;100577.72;4920212;29;2246;-95
2022/05/31 03:57:39;;;;;;;;;;;;;;;12.12;61.28;100575.00;4921201;29;2142;-94
2022/05/31 04:00:08;;;;;;;;;;;;;;;12.11;61.09;100562.56;4920357;29;1785;-95
2022/05/31 04:02:34;;;;;;;;;;;;;;;12.11;61.27;100567.97;4915341;29;2103;-94
2022/05/31 04:05:01;;;;;;;;;;;;;;;12.10;61.05;100567.16;4914359;29;2052;-96
2022/05/31 04:07:27;;;;;;;;;;;;;;;12.10;61.13;100569.03;4916495;29;1806;-95
2022/05/31 04:09:53;;;;;;;;;;;;;;;12.10;61.00;100574.44;4916629;29;1613;-95
2022/05/31 04:12:20;;;;;;;;;;;;;;;12.10;61.04;100566.34;4915501;29;2075;-95
2022/05/31 04:14:46;;;;;;;;;;;;;;;12.08;61.15;100563.03;4917107;29;1557;-94
2022/05/31 04:17:13;;;;;;;;;;;;;;;12.08;60.97;100568.44;4916660;29;1919;-96
2022/05/31 04:19:40;;;;;;;;;;;;;;;12.08;60.96;100571.94;4916126;29;1673;-95
2022/05/31 04:22:06;;;;;;;;;;;;;;;12.07;61.04;100573.00;4916746;29;1518;-95
2022/05/31 04:24:32;;;;;;;;;;;;;;;12.05;60.99;100570.53;4924340;29;2013;-94
2022/05/31 04:26:59;;;;;;;;;;;;;;;12.05;60.98;100570.53;4916682;29;1565;-95
2022/05/31 04:29:26;;;;;;;;;;;;;;;12.07;61.02;100569.50;4920287;29;2039;-94
2022/05/31 04:31:52;;;;;;;;;;;;;;;12.05;60.97;100572.41;4914966;29;1853;-95
2022/05/31 04:34:19;;;;;;;;;;;;;;;12.05;60.98;100570.53;4917009;29;1661;-96
2022/05/31 04:36:45;;;;;;;;;;;;;;;12.04;60.93;100568.91;4915031;29;2022;-94
2022/05/31 04:39:11;;;;;;;;;;;;;;;12.03;60.92;100567.25;4926545;29;1911;-95
2022/05/31 04:41:38;;;;;;;;;;;;;;;12.03;60.92;100561.03;4932689;29;2150;-94
2022/05/31 04:44:04;;;;;;;;;;;;;;;12.02;60.98;100560.19;4919200;29;2105;-95
2022/05/31 04:46:31;;;;;;;;;;;;;;;12.02;61.00;100560.19;4916259;29;1569;-94
2022/05/31 04:48:57;;;;;;;;;;;;;;;12.01;60.89;100555.03;4915189;29;2056;-94
2022/05/31 04:51:24;;;;;;;;;;;;;;;12.01;60.92;100555.03;4931206;29;1695;-95
2022/05/31 04:53:50;;;;;;;;;;;;;;;12.00;60.94;100553.38;4908614;29;1547;-95
2022/05/31 04:56:19;;;;;;;;;;;;;;;12.01;61.09;100547.75;4915369;29;2346;-94
2022/05/31 04:58:45;;;;;;;;;;;;;;;12.00;60.85;100556.91;4915174;29;2138;-95
2022/05/31 05:01:11;;;;;;;;;;;;;;;12.00;60.81;100561.47;4916190;29;1637;-94
2022/05/31 05:03:38;;;;;;;;;;;;;;;11.99;60.90;100555.25;4914549;29;1883;-95
2022/05/31 05:06:04;;;;;;;;;;;;;;;12.00;60.94;100556.06;4916254;29;1574;-94
2022/05/31 05:08:31;;;;;;;;;;;;;;;11.99;60.90;100557.13;4915557;29;1514;-94
2022/05/31 05:10:57;;;;;;;;;;;;;;;11.98;60.85;100552.78;4915358;29;1515;-95
2022/05/31 05:13:23;;;;;;;;;;;;;;;11.98;60.83;100556.31;4921416;29;2182;-95
2022/05/31 05:15:51;;;;;;;;;;;;;;;11.98;60.99;100558.19;4915576;29;1677;-95
2022/05/31 05:18:17;;;;;;;;;;;;;;;11.98;60.96;100552.78;4931676;29;1915;-95
2022/05/31 05:20:44;;;;;;;;;;;;;;;11.98;60.74;100555.50;4915568;29;1937;-94
2022/05/31 05:23:10;;;;;;;;;;;;;;;11.98;60.73;100561.72;4922806;29;1778;-95
2022/05/31 05:25:36;;;;;;;;;;;;;;;11.96;60.93;100558.41;4916385;29;1700;-94
2022/05/31 05:30:38;;;;;;;;;;;;;;;11.96;60.89;100555.72;4915768;29;2418;-95
2022/05/31 05:30:49;;;;;;;;;;;;;;;11.97;60.77;100553.81;4914742;28;2082;-95
2022/05/31 05:33:15;;;;;;;;;;;;;;;11.96;60.81;100554.91;4919267;29;1510;-95
2022/05/31 05:35:41;;;;;;;;;;;;;;;11.97;60.88;100556.53;4920004;29;1502;-95
2022/05/31 05:38:08;;;;;;;;;;;;;;;11.95;60.84;100559.47;4919869;29;1911;-95
2022/05/31 05:40:34;;;;;;;;;;;;;;;11.96;60.78;100554.91;4919519;29;1542;-95
2022/05/31 05:43:01;;;;;;;;;;;;;;;11.95;60.97;100551.38;4917947;29;2099;-95
2022/05/31 05:45:27;;;;;;;;;;;;;;;11.95;60.96;100540.56;4919815;29;1689;-95
2022/05/31 05:47:54;;;;;;;;;;;;;;;11.94;60.77;100549.75;4918470;29;1486;-95
2022/05/31 05:50:20;;;;;;;;;;;;;;;11.95;60.76;100547.84;4919218;29;1609;-94
2022/05/31 05:52:46;;;;;;;;;;;;;;;11.95;60.77;100548.69;4919475;29;1669;-95
2022/05/31 05:55:13;;;;;;;;;;;;;;;11.95;60.74;100551.38;4918500;29;1590;-94
2022/05/31 05:57:39;;;;;;;;;;;;;;;11.93;60.88;100545.38;4918721;29;3095;-95
2022/05/31 06:00:06;;;;;;;;;;;;;;;11.94;60.96;100543.50;4918509;29;2078;-96
2022/05/31 06:02:33;;;;;;;;;;;;;;;11.94;60.90;100541.63;4919181;29;1661;-95
2022/05/31 06:04:59;;;;;;;;;;;;;;;11.94;60.68;100538.09;4919444;29;1617;-95
2022/05/31 06:07:25;;;;;;;;;;;;;;;11.94;60.93;100538.09;4916161;29;2322;-94
2022/05/31 06:09:52;;;;;;;;;;;;;;;11.95;60.67;100540.56;4916945;29;1882;-95
2022/05/31 06:12:18;;;;;;;;;;;;;;;11.94;60.91;100533.53;4916971;29;2075;-94
2022/05/31 06:14:44;;;;;;;;;;;;;;;11.94;60.75;100541.63;4912473;29;4713;-95
2022/05/31 06:17:11;;;;;;;;;;;;;;;11.93;60.78;100544.56;4901375;29;4035;-95
2022/05/31 06:19:37;;;;;;;;;;;;;;;11.94;60.70;100538.09;4918031;29;1963;-95
2022/05/31 06:22:03;;;;;;;;;;;;;;;11.95;60.87;100529.78;4918122;29;3664;-95
2022/05/31 06:24:30;;;;;;;;;;;;;;;11.94;60.74;100530.00;4918701;29;1584;-94
2022/05/31 06:26:56;;;;;;;;;;;;;;;11.94;60.64;100533.53;4917903;29;1589;-94
2022/05/31 06:29:23;;;;;;;;;;;;;;;11.97;60.74;100529.53;4916396;29;2092;-95
2022/05/31 06:31:49;;;;;;;;;;;;;;;11.95;60.52;100528.97;4916623;29;1595;-95
2022/05/31 06:34:16;;;;;;;;;;;;;;;11.95;60.75;100527.09;4917759;29;3604;-94
2022/05/31 06:36:42;;;;;;;;;;;;;;;11.95;60.71;100524.38;4918571;29;1577;-95
2022/05/31 06:39:09;;;;;;;;;;;;;;;11.94;60.65;100520.06;4917796;29;2091;-95
2022/05/31 06:41:35;;;;;;;;;;;;;;;11.95;60.65;100521.69;4919819;29;1703;-95
2022/05/31 06:44:01;;;;;;;;;;;;;;;11.96;60.81;100520.63;4917015;29;2100;-94
2022/05/31 06:46:28;;;;;;;;;;;;;;;11.97;60.42;100511.50;4916436;29;1458;-95
2022/05/31 06:48:54;;;;;;;;;;;;;;;11.96;60.57;100520.63;4918583;29;1553;-96
2022/05/31 06:56:52;;;;;;;;;;;;;;;11.97;60.56;100519.59;4921815;29;1621;-95
2022/05/31 06:59:19;;;;;;;;;;;;;;;11.98;60.50;100515.81;4917350;29;1975;-96
2022/05/31 07:01:47;;;;;;;;;;;;;;;11.98;60.45;100515.00;4915610;29;1947;-93
2022/05/31 07:04:14;;;;;;;;;;;;;;;11.98;60.59;100509.59;4920621;29;2035;-95
2022/05/31 07:06:40;;;;;;;;;;;;;;;11.98;60.62;100510.44;4920719;29;1604;-94
2022/05/31 07:09:07;;;;;;;;;;;;;;;11.99;60.48;100506.66;4920055;29;1969;-95
2022/05/31 07:11:33;;;;;;;;;;;;;;;12.00;60.54;100504.78;4916189;29;1830;-95
2022/05/31 07:14:01;;;;;;;;;;;;;;;12.00;60.57;100499.38;4922331;29;1215;-94
2022/05/31 07:16:27;;;;;;;;;;;;;;;11.99;60.49;100501.28;4922989;29;1188;-94
2022/05/31 07:18:54;;;;;;;;;;;;;;;12.01;60.42;100504.56;4922591;29;1911;-95
2022/05/31 07:21:20;;;;;;;;;;;;;;;12.01;60.60;100499.16;4922566;29;1253;-94
2022/05/31 07:23:47;;;;;;;;;;;;;;;12.01;60.54;100507.28;4922811;29;1191;-95
2022/05/31 07:26:14;;;;;;;;;;;;;;;12.04;60.34;100506.00;4922841;29;1363;-95
2022/05/31 07:28:41;;;;;;;;;;;;;;;12.02;60.34;100500.81;4922572;29;1615;-95
2022/05/31 07:31:07;;;;;;;;;;;;;;;12.03;60.50;100502.47;4922516;29;1313;-94
2022/05/31 07:33:35;;;;;;;;;;;;;;;12.03;60.44;100502.47;4914363;29;1218;-94
2022/05/31 07:36:01;;;;;;;;;;;;;;;12.04;60.29;100500.59;4917066;29;1375;-94
2022/05/31 07:38:28;;;;;;;;;;;;;;;12.03;60.46;100494.38;4922253;29;1911;-94
2022/05/31 07:40:54;;;;;;;;;;;;;;;12.04;60.42;100506.81;4922423;29;1286;-95
2022/05/31 07:43:21;;;;;;;;;;;;;;;12.05;60.57;100499.53;4921923;29;1339;-95
2022/05/31 07:45:47;;;;;;;;;;;;;;;12.03;60.49;100494.38;4922585;29;1214;-95
2022/05/31 07:48:14;;;;;;;;;;;;;;;12.03;60.51;100486.28;4938841;29;1268;-94
2022/05/31 07:50:40;;;;;;;;;;;;;;;12.05;60.56;100488.72;4922521;29;1270;-94
2022/05/31 07:53:07;;;;;;;;;;;;;;;12.06;60.64;100482.28;4922326;29;1375;-95
2022/05/31 07:55:34;;;;;;;;;;;;;;;12.06;60.38;100482.28;4921912;29;1265;-94
2022/05/31 08:00:44;;;;;;;;;;;;;;;12.07;60.50;100477.72;4922140;29;1280;-94
2022/05/31 08:03:12;;;;;;;;;;;;;;;12.07;60.41;100470.44;4924345;29;1301;-95
2022/05/31 08:05:38;;;;;;;;;;;;;;;12.08;60.45;100473.94;4933322;29;1312;-95
2022/05/31 08:08:05;;;;;;;;;;;;;;;12.08;60.59;100469.38;4918849;29;1357;-95
2022/05/31 08:10:31;;;;;;;;;;;;;;;12.07;60.51;100473.13;4902645;29;1225;-94
2022/05/31 08:12:58;;;;;;;;;;;;;;;12.09;60.43;100467.50;4903395;29;1219;-94
2022/05/31 08:15:24;;;;;;;;;;;;;;;12.09;60.44;100465.63;4912259;29;1325;-94
2022/05/31 08:17:51;;;;;;;;;;;;;;;12.09;60.37;100467.50;4919631;29;1980;-95
2022/05/31 08:20:17;;;;;;;;;;;;;;;12.09;60.54;100460.25;4921486;29;1192;-94
2022/05/31 08:22:44;;;;;;;;;;;;;;;12.10;60.51;100455.66;4913919;29;1223;-95
2022/05/31 08:25:11;;;;;;;;;;;;;;;12.12;60.42;100453.53;4934172;29;1250;-94
2022/05/31 08:27:37;;;;;;;;;;;;;;;12.11;60.54;100455.41;4946698;29;1285;-94
2022/05/31 08:30:04;;;;;;;;;;;;;;;12.12;60.56;100450.81;4916802;29;2393;-95
2022/05/31 08:32:31;;;;;;;;;;;;;;;12.13;60.53;100447.09;4920883;29;2229;-94
2022/05/31 08:34:57;;;;;;;;;;;;;;;12.13;60.38;100450.59;4921585;29;1354;-95
2022/05/31 08:37:24;;;;;;;;;;;;;;;12.13;60.55;100450.59;4921278;29;1309;-95
2022/05/31 08:39:50;;;;;;;;;;;;;;;12.14;60.51;100437.94;4921089;29;1906;-94
2022/05/31 08:42:17;;;;;;;;;;;;;;;12.13;60.51;100434.41;4930740;29;1298;-95
2022/05/31 08:44:43;;;;;;;;;;;;;;;12.15;60.48;100439.59;4926801;29;1294;-94
2022/05/31 08:47:10;;;;;;;;;;;;;;;12.16;60.39;100433.13;4940067;29;1217;-95
2022/05/31 08:52:17;;;;;;;;;;;;;;;12.15;60.54;100421.50;4939392;29;1307;-94
2022/05/31 08:57:29;;;;;;;;;;;;;;;12.18;60.43;100412.94;4912769;29;1276;-93
2022/05/31 08:59:56;;;;;;;;;;;;;;;12.19;60.39;100421.84;4911586;29;1974;-94
2022/05/31 09:02:22;;;;;;;;;;;;;;;12.20;60.51;100420.78;4902477;29;1359;-93
2022/05/31 09:04:49;;;;;;;;;;;;;;;12.20;60.50;100415.41;4902325;29;1231;-95
2022/05/31 09:07:15;;;;;;;;;;;;;;;12.21;60.35;100408.97;4901570;29;1210;-95
2022/05/31 09:09:42;;;;;;;;;;;;;;;12.21;60.57;100415.19;4918081;29;1259;-94
2022/05/31 09:12:08;;;;;;;;;;;;;;;12.22;60.51;100413.28;4918450;29;1192;-94
2022/05/31 09:14:35;;;;;;;;;;;;;;;12.22;60.36;100414.09;4933101;29;1257;-95
2022/05/31 09:17:01;;;;;;;;;;;;;;;12.23;60.51;100404.13;4921274;29;1300;-95
2022/05/31 09:19:28;;;;;;;;;;;;;;;12.23;60.54;100407.63;4920679;29;1915;-94
2022/05/31 09:21:54;;;;;;;;;;;;;;;12.24;60.50;100408.50;4920708;29;1197;-94
2022/05/31 09:24:21;;;;;;;;;;;;;;;12.25;60.45;100400.13;4921737;29;1353;-94
2022/05/31 09:26:51;;;;;;;;;;;;;;;12.26;60.30;100400.94;4940369;29;1531;-94
2022/05/31 09:29:17;;;;;;;;;;;;;;;12.27;60.45;100398.03;4920518;29;1218;-94
2022/05/31 09:31:44;;;;;;;;;;;;;;;12.28;60.31;100394.28;4920557;29;1311;-95
2022/05/31 09:34:11;;;;;;;;;;;;;;;12.28;60.54;100390.75;4920946;29;1227;-94
2022/05/31 09:36:37;;;;;;;;;;;;;;;12.29;60.56;100395.09;4939742;29;1327;-94
2022/05/31 09:39:04;;;;;;;;;;;;;;;12.31;60.46;100389.47;4925377;29;1956;-95
2022/05/31 09:41:31;;;;;;;;;;;;;;;12.31;60.46;100389.47;4907158;29;1380;-93
2022/05/31 09:43:57;;;;;;;;;;;;;;;12.33;60.59;100387.34;4909137;29;1191;-94
2022/05/31 09:46:24;;;;;;;;;;;;;;;12.33;60.68;100390.06;4926405;29;1490;-95
2022/05/31 09:48:50;;;;;;;;;;;;;;;12.33;60.38;100380.06;4901967;29;1250;-94
2022/05/31 09:51:17;;;;;;;;;;;;;;;12.35;60.48;100387.91;4901571;29;1231;-95
2022/05/31 09:59:12;;;;;;;;;;;;;;;12.37;60.43;100370.44;4903733;29;1970;-94
2022/05/31 10:01:39;;;;;;;;;;;;;;;12.38;60.59;100368.53;4915080;29;1310;-94
2022/05/31 10:04:07;;;;;;;;;;;;;;;12.39;60.58;100373.72;4920801;29;1171;-94
2022/05/31 10:06:33;;;;;;;;;;;;;;;12.40;60.58;100375.34;4920501;29;1336;-95
2022/05/31 10:09:00;;;;;;;;;;;;;;;12.41;60.73;100368.06;4920809;29;1384;-94
2022/05/31 10:11:26;;;;;;;;;;;;;;;12.42;60.71;100370.56;4921053;29;1279;-95
2022/05/31 10:13:53;;;;;;;;;;;;;;;12.43;60.77;100369.50;4920743;29;1303;-94
2022/05/31 10:16:19;;;;;;;;;;;;;;;12.43;60.83;100361.38;4920555;29;1169;-95
2022/05/31 10:18:46;;;;;;;;;;;;;;;12.44;60.84;100363.03;4921971;29;1907;-95
2022/05/31 10:21:12;;;;;;;;;;;;;;;12.45;60.59;100358.47;4924197;29;1210;-95
2022/05/31 10:23:39;;;;;;;;;;;;;;;12.45;60.83;100358.47;4923892;29;1319;-95
2022/05/31 10:26:05;;;;;;;;;;;;;;;12.47;60.89;100356.31;4924274;29;1166;-93
2022/05/31 10:28:32;;;;;;;;;;;;;;;12.47;60.78;100359.88;4924044;29;1187;-94
2022/05/31 10:30:58;;;;;;;;;;;;;;;12.50;60.78;100361.28;4923923;29;1194;-94
2022/05/31 10:33:25;;;;;;;;;;;;;;;12.51;60.72;100360.22;4923845;29;1194;-95
2022/05/31 10:35:51;;;;;;;;;;;;;;;12.52;60.95;100363.72;4923425;29;1202;-95
2022/05/31 10:38:18;;;;;;;;;;;;;;;12.53;61.02;100362.66;4921064;29;1224;-95
2022/05/31 10:40:45;;;;;;;;;;;;;;;12.54;60.76;100358.91;4923446;29;1989;-96
2022/05/31 10:43:11;;;;;;;;;;;;;;;12.54;60.78;100351.63;4923286;29;1177;-95
2022/05/31 10:45:38;;;;;;;;;;;;;;;12.57;60.94;100353.03;4923596;29;1389;-94
2022/05/31 10:48:04;;;;;;;;;;;;;;;12.57;60.89;100342.25;4923492;29;1207;-95
2022/05/31 10:50:33;;;;;;;;;;;;;;;12.58;60.92;100349.28;4955433;29;1547;-94
2022/05/31 10:52:59;;;;;;;;;;;;;;;12.59;61.05;100338.25;4923198;29;1154;-95
2022/05/31 10:55:26;;;;;;;;;;;;;;;12.60;61.01;100333.66;4911068;29;1436;-95
2022/05/31 10:57:53;;;;;;;;;;;;;;;12.62;61.05;100342.34;4923723;29;1199;-94
2022/05/31 11:00:20;;;;;;;;;;;;;;;12.62;60.96;100337.75;4923453;29;1954;-94
2022/05/31 11:02:46;;;;;;;;;;;;;;;12.64;61.00;100335.63;4923071;29;1179;-95
2022/05/31 11:05:13;;;;;;;;;;;;;;;12.65;61.03;100341.88;4922978;29;1268;-94
2022/05/31 11:07:39;;;;;;;;;;;;;;;12.66;61.02;100344.31;4923183;29;1268;-94
2022/05/31 11:12:50;;;;;;;;;;;;;;;12.68;61.21;100338.69;4913264;29;1383;-94
2022/05/31 11:15:16;;;;;;;;;;;;;;;12.69;61.12;100338.44;4923152;29;1210;-94
2022/05/31 11:17:43;;;;;;;;;;;;;;;12.71;61.38;100327.41;4922748;29;1420;-94
2022/05/31 11:20:10;;;;;;;;;;;;;;;12.71;61.17;100327.41;4922599;29;1911;-94
2022/05/31 11:22:37;;;;;;;;;;;;;;;12.73;61.26;100328.81;4919483;29;1324;-95
2022/05/31 11:25:04;;;;;;;;;;;;;;;12.73;61.24;100320.72;4919350;29;1227;-94
2022/05/31 11:27:31;;;;;;;;;;;;;;;12.75;61.32;100317.75;4916048;29;1223;-95
2022/05/31 11:29:57;;;;;;;;;;;;;;;12.76;61.28;100316.69;4921750;29;1698;-95
2022/05/31 11:32:24;;;;;;;;;;;;;;;12.77;61.52;100309.41;4922454;29;1177;-94
2022/05/31 11:34:51;;;;;;;;;;;;;;;12.78;61.32;100309.16;4922678;29;1222;-94
2022/05/31 11:37:17;;;;;;;;;;;;;;;12.79;61.48;100316.19;4917988;29;2293;-95
2022/05/31 11:39:44;;;;;;;;;;;;;;;12.80;61.49;100312.47;4930685;29;2336;-93
2022/05/31 11:42:10;;;;;;;;;;;;;;;12.81;61.46;100302.47;4922488;29;1325;-93
2022/05/31 11:44:37;;;;;;;;;;;;;;;12.82;61.50;100304.09;4922149;29;1202;-95
2022/05/31 11:47:03;;;;;;;;;;;;;;;12.84;61.50;100301.97;4922305;29;1313;-95
2022/05/31 11:49:30;;;;;;;;;;;;;;;12.85;61.64;100295.50;4922013;29;1297;-94
2022/05/31 11:51:57;;;;;;;;;;;;;;;12.86;61.55;100299.88;4922339;29;1320;-94
2022/05/31 11:54:23;;;;;;;;;;;;;;;12.87;61.62;100296.09;4918443;29;1297;-94
2022/05/31 11:56:50;;;;;;;;;;;;;;;12.89;61.75;100296.69;4910989;29;1346;-94
2022/05/31 11:59:16;;;;;;;;;;;;;;;12.90;61.54;100296.41;4934078;29;1986;-94
2022/05/31 12:01:43;;;;;;;;;;;;;;;12.91;61.63;100294.53;4922756;29;1280;-95
2022/05/31 12:04:10;;;;;;;;;;;;;;;12.93;61.89;100287.00;4907914;29;1216;-94
2022/05/31 12:06:37;;;;;;;;;;;;;;;12.94;62.00;100277.84;4911052;29;1204;-94
2022/05/31 12:09:07;;;;;;;;;;;;;;;12.94;61.74;100278.69;4930003;29;1305;-95
2022/05/31 12:11:33;;;;;;;;;;;;;;;12.96;61.79;100275.72;4916883;29;1271;-95
2022/05/31 12:14:00;;;;;;;;;;;;;;;12.96;62.12;100273.84;4916015;29;1330;-94
2022/05/31 12:16:26;;;;;;;;;;;;;;;12.98;62.02;100279.00;4903184;29;1304;-94
2022/05/31 12:18:53;;;;;;;;;;;;;;;13.00;62.04;100285.00;4917475;29;1899;-95
2022/05/31 12:21:19;;;;;;;;;;;;;;;13.01;61.90;100275.00;4921406;29;1351;-93
2022/05/31 12:23:46;;;;;;;;;;;;;;;13.03;61.88;100273.72;4921559;29;1350;-94
2022/05/31 12:26:12;;;;;;;;;;;;;;;13.03;62.00;100276.41;4921841;29;1362;-95
2022/05/31 12:28:39;;;;;;;;;;;;;;;13.05;62.00;100281.56;4921641;29;1252;-94
2022/05/31 12:31:05;;;;;;;;;;;;;;;13.05;61.96;100279.66;4921621;29;1199;-95
2022/05/31 12:36:16;;;;;;;;;;;;;;;13.08;62.15;100286.47;4921205;29;1192;-95
2022/05/31 12:38:42;;;;;;;;;;;;;;;13.09;62.10;100288.94;4920865;29;1240;-94
2022/05/31 12:41:09;;;;;;;;;;;;;;;13.11;62.08;100289.50;4937825;29;1923;-94
2022/05/31 12:43:36;;;;;;;;;;;;;;;13.12;62.07;100290.34;4921282;29;1337;-95
2022/05/31 12:46:02;;;;;;;;;;;;;;;13.14;62.23;100280.91;4921451;29;1198;-95
2022/05/31 12:48:29;;;;;;;;;;;;;;;13.14;62.15;100277.38;4921444;29;1286;-95
2022/05/31 12:50:55;;;;;;;;;;;;;;;13.16;62.21;100281.50;4921108;29;1230;-95
2022/05/31 12:53:22;;;;;;;;;;;;;;;13.17;62.21;100283.13;4921033;29;1183;-95
2022/05/31 12:55:48;;;;;;;;;;;;;;;13.19;62.27;100277.50;4918157;29;1436;-94
2022/05/31 12:58:29;;;;;;;;;;;;;;;13.21;62.23;100271.81;4904944;29;1275;-94
2022/05/31 13:00:55;;;;;;;;;;;;;;;13.22;62.19;100268.06;4921132;29;1959;-94
2022/05/31 13:03:22;;;;;;;;;;;;;;;13.24;62.35;100279.47;4907084;29;1339;-96
2022/05/31 13:05:49;;;;;;;;;;;;;;;13.24;62.22;100271.38;4918362;29;1351;-96
2022/05/31 13:08:15;;;;;;;;;;;;;;;13.26;62.33;100269.25;4935064;29;1395;-94